Time;durP1;ratioP1;P1;durP2;ratioP2;P2;SDS_P1;SDS_P2;PMS_P1;PMS_P2;Temp;Humidity;BMP_temperature;BMP_pressure;BME280_temperature;BME280_humidity;BME280_pressure;Samples;Min_cycle;Max_cycle;Signal;HPM_P1;HPM_P2
2023/07/20 00:00:21;;;;;;;1.08;0.90;;;;;;;21.95;44.75;96503.69;5112492;28;20100;-78
2023/07/20 00:02:51;;;;;;;0.90;0.70;;;;;;;21.96;44.19;96502.66;5112508;28;20085;-78
2023/07/20 00:05:21;;;;;;;4.60;1.00;;;;;;;21.92;44.42;96512.19;5112397;28;20472;-77
2023/07/20 00:07:51;;;;;;;3.10;1.40;;;;;;;21.89;44.31;96518.00;5112657;28;20043;-78
2023/07/20 00:10:19;;;;;;;3.10;0.80;;;;;;;21.87;44.69;96514.81;5112477;28;20079;-77
2023/07/20 00:12:47;;;;;;;2.20;1.05;;;;;;;21.86;44.69;96518.50;5112519;28;20100;-77
2023/07/20 00:15:15;;;;;;;1.08;0.88;;;;;;;21.87;44.54;96515.59;5112571;28;20078;-77
2023/07/20 00:17:42;;;;;;;2.05;1.17;;;;;;;21.89;44.86;96512.72;5112555;28;20094;-77
2023/07/20 00:20:12;;;;;;;1.90;0.88;;;;;;;21.91;44.63;96510.56;5111978;28;20434;-77
2023/07/20 00:22:39;;;;;;;3.85;1.20;;;;;;;21.91;44.62;96499.94;5117712;28;20057;-76
2023/07/20 00:25:11;;;;;;;0.82;0.65;;;;;;;21.91;44.77;96498.09;5128564;28;20437;-78
2023/07/20 00:27:39;;;;;;;3.08;1.40;;;;;;;21.91;44.52;96508.72;5118976;28;20073;-77
2023/07/20 00:30:07;;;;;;;1.67;0.90;;;;;;;21.93;44.75;96516.41;5119868;28;20078;-77
2023/07/20 00:32:35;;;;;;;2.00;1.13;;;;;;;21.92;44.52;96510.31;5119425;28;20043;-78
2023/07/20 00:35:03;;;;;;;1.88;0.90;;;;;;;21.93;45.01;96513.75;5114761;28;20093;-77
2023/07/20 00:37:30;;;;;;;1.30;0.93;;;;;;;21.93;44.93;96508.44;5113402;28;20093;-77
2023/07/20 00:39:58;;;;;;;1.30;0.77;;;;;;;21.94;44.76;96502.09;5113083;28;20051;-77
2023/07/20 00:42:27;;;;;;;3.35;1.17;;;;;;;21.94;44.65;96515.38;5115994;28;20043;-77
2023/07/20 00:44:54;;;;;;;2.63;0.90;;;;;;;21.94;44.62;96500.25;5115740;28;20098;-77
2023/07/20 00:47:21;;;;;;;1.20;1.00;;;;;;;21.93;44.53;96503.16;5115865;28;20048;-77
2023/07/20 00:49:50;;;;;;;2.22;0.93;;;;;;;21.93;44.79;96493.34;5115907;28;20051;-77
2023/07/20 00:52:19;;;;;;;1.10;0.95;;;;;;;21.94;44.81;96502.91;5115642;28;20487;-78
2023/07/20 00:54:48;;;;;;;1.83;1.02;;;;;;;21.96;45.05;96505.31;5115806;28;20123;-77
2023/07/20 00:57:16;;;;;;;2.38;1.33;;;;;;;21.94;45.25;96515.38;5115413;28;20480;-77
2023/07/20 00:59:45;;;;;;;2.25;1.27;;;;;;;21.92;44.38;96510.31;5115101;28;20051;-76
2023/07/20 01:02:13;;;;;;;3.05;1.40;;;;;;;21.91;43.46;96502.59;5115943;28;20051;-77
2023/07/20 01:04:41;;;;;;;2.45;1.00;;;;;;;21.85;42.99;96509.75;5117430;28;20089;-77
2023/07/20 01:07:26;;;;;;;1.90;0.90;;;;;;;21.74;43.01;96508.88;5115185;28;20469;-77
2023/07/20 01:10:02;;;;;;;3.13;1.70;;;;;;;21.71;43.33;96506.75;5114874;28;20043;-77
2023/07/20 01:12:36;;;;;;;3.10;1.33;;;;;;;21.67;42.88;96504.81;5115159;28;20058;-77
2023/07/20 01:15:07;;;;;;;2.72;1.20;;;;;;;21.63;42.71;96512.53;5115452;28;20048;-77
2023/07/20 01:17:35;;;;;;;3.47;1.15;;;;;;;21.53;42.66;96502.59;5115339;28;20445;-77
2023/07/20 01:20:03;;;;;;;3.28;1.42;;;;;;;21.52;43.31;96510.84;5114986;28;20048;-77
2023/07/20 01:23:02;;;;;;;3.33;1.30;;;;;;;21.48;43.28;96512.41;5115162;28;20074;-77
2023/07/20 01:25:49;;;;;;;2.15;0.82;;;;;;;21.40;42.72;96511.75;5114746;28;20047;-77
2023/07/20 01:28:55;;;;;;;2.40;0.85;;;;;;;21.33;42.61;96500.56;5114709;28;20100;-77
2023/07/20 01:31:26;;;;;;;3.25;1.40;;;;;;;21.30;42.60;96505.59;5088784;28;20052;-77
2023/07/20 01:33:57;;;;;;;3.50;1.60;;;;;;;21.24;42.96;96506.59;5114747;28;20077;-77
2023/07/20 01:36:27;;;;;;;2.38;1.10;;;;;;;21.19;44.08;96504.69;5114515;28;20087;-77
2023/07/20 01:38:55;;;;;;;2.65;1.40;;;;;;;21.13;43.06;96501.19;5114503;28;20096;-77
2023/07/20 01:41:23;;;;;;;2.80;1.40;;;;;;;21.05;42.86;96503.50;5114066;28;20104;-77
2023/07/20 01:43:51;;;;;;;1.80;1.20;;;;;;;20.99;43.35;96511.41;5114242;28;20556;-77
2023/07/20 01:46:19;;;;;;;3.67;1.40;;;;;;;20.92;43.40;96504.69;5114474;28;20426;-77
2023/07/20 01:48:48;;;;;;;2.30;1.55;;;;;;;20.83;43.73;96506.19;5114268;28;20051;-77
2023/07/20 01:51:17;;;;;;;1.80;1.10;;;;;;;20.76;43.79;96501.09;5113635;28;20044;-77
2023/07/20 01:53:45;;;;;;;2.40;1.15;;;;;;;20.74;44.10;96505.84;5114507;27;20507;-77
2023/07/20 01:56:13;;;;;;;3.05;1.65;;;;;;;20.66;44.07;96507.09;5114457;28;20071;-77
2023/07/20 01:58:40;;;;;;;4.55;2.05;;;;;;;20.55;44.49;96515.91;5114165;28;20079;-78
2023/07/20 02:01:08;;;;;;;2.42;1.00;;;;;;;20.51;44.77;96518.28;5133476;28;20073;-77
2023/07/20 02:03:35;;;;;;;2.30;1.65;;;;;;;20.51;44.88;96514.81;5114809;28;20100;-77
2023/07/20 02:06:04;;;;;;;3.17;1.45;;;;;;;20.46;45.08;96518.19;5114239;28;20548;-77
2023/07/20 02:08:32;;;;;;;3.30;1.80;;;;;;;20.40;44.99;96521.84;5113921;28;20047;-77
2023/07/20 02:11:00;;;;;;;4.53;1.75;;;;;;;20.38;45.40;96516.00;5113660;28;20078;-77
2023/07/20 02:13:27;;;;;;;2.58;1.40;;;;;;;20.34;45.51;96525.50;5113814;28;20051;-78
2023/07/20 02:15:55;;;;;;;4.57;2.25;;;;;;;20.29;45.96;96522.75;5113945;28;20126;-77
2023/07/20 02:18:22;;;;;;;4.35;1.75;;;;;;;20.23;45.85;96523.75;5113596;28;20499;-76
2023/07/20 02:20:51;;;;;;;3.80;1.60;;;;;;;20.19;46.46;96517.34;5121585;28;20051;-77
2023/07/20 02:23:20;;;;;;;4.25;2.45;;;;;;;20.20;46.55;96524.22;5130004;28;20044;-77
2023/07/20 02:25:47;;;;;;;4.30;1.92;;;;;;;20.19;46.45;96522.63;5121151;28;20043;-77
2023/07/20 02:28:16;;;;;;;2.05;1.30;;;;;;;20.13;46.40;96525.19;5114165;28;20142;-77
2023/07/20 02:30:43;;;;;;;3.33;1.50;;;;;;;20.11;46.38;96526.50;5114051;28;20074;-77
2023/07/20 02:33:11;;;;;;;4.35;1.75;;;;;;;20.04;46.21;96516.06;5113652;28;20055;-77
2023/07/20 02:35:39;;;;;;;2.47;1.35;;;;;;;20.01;46.63;96521.06;5113718;28;20460;-77
2023/07/20 02:38:07;;;;;;;4.82;1.90;;;;;;;20.03;46.78;96522.44;5113705;28;20048;-77
2023/07/20 02:40:36;;;;;;;2.70;1.40;;;;;;;20.06;47.00;96532.53;5113366;28;20083;-77
2023/07/20 02:43:03;;;;;;;2.53;1.83;;;;;;;20.10;46.79;96533.66;5113229;28;20047;-77
2023/07/20 02:45:31;;;;;;;2.90;1.58;;;;;;;20.13;46.41;96535.78;5113748;28;20472;-77
2023/07/20 02:47:58;;;;;;;2.53;1.83;;;;;;;20.12;46.44;96536.06;5113179;28;20058;-77
2023/07/20 02:50:26;;;;;;;3.45;1.42;;;;;;;20.02;47.15;96527.97;5113171;28;20399;-77
2023/07/20 02:52:54;;;;;;;4.50;2.08;;;;;;;19.95;47.21;96533.44;5113261;28;20418;-77
2023/07/20 02:55:21;;;;;;;1.67;1.33;;;;;;;19.95;47.40;96534.22;5113189;28;20051;-77
2023/07/20 02:57:50;;;;;;;5.93;1.73;;;;;;;19.94;46.81;96537.09;5113453;28;20077;-77
2023/07/20 03:00:19;;;;;;;2.35;1.60;;;;;;;19.88;47.02;96541.53;5113366;28;20483;-77
2023/07/20 03:02:47;;;;;;;2.55;1.38;;;;;;;19.84;47.11;96547.56;5112302;28;20510;-77
2023/07/20 03:05:16;;;;;;;1.92;1.35;;;;;;;19.75;47.28;96537.38;5113295;28;20044;-77
2023/07/20 03:07:44;;;;;;;4.45;1.90;;;;;;;19.72;47.51;96551.09;5112989;28;20044;-77
2023/07/20 03:10:12;;;;;;;2.35;1.27;;;;;;;19.71;47.37;96540.75;5112408;28;20097;-77
2023/07/20 03:12:40;;;;;;;6.70;1.98;;;;;;;19.65;47.78;96539.81;5113201;28;20051;-77
2023/07/20 03:15:11;;;;;;;3.67;1.75;;;;;;;19.64;47.73;96551.47;5112821;28;20391;-77
2023/07/20 03:17:38;;;;;;;3.08;1.40;;;;;;;19.67;48.08;96558.91;5113116;28;20142;-77
2023/07/20 03:20:09;;;;;;;2.13;1.67;;;;;;;19.72;47.79;96551.09;5112678;28;20048;-77
2023/07/20 03:22:36;;;;;;;4.70;1.67;;;;;;;19.78;47.55;96553.81;5113028;28;20079;-77
2023/07/20 03:25:06;;;;;;;2.97;1.38;;;;;;;19.83;47.69;96554.72;5112750;28;20503;-77
2023/07/20 03:27:33;;;;;;;2.67;1.48;;;;;;;19.91;47.37;96556.13;5112644;28;20051;-77
2023/07/20 03:30:01;;;;;;;1.90;1.75;;;;;;;19.96;47.99;96558.84;5112636;28;20048;-77
2023/07/20 03:32:30;;;;;;;2.55;1.58;;;;;;;19.99;47.69;96561.03;5112797;28;20104;-77
2023/07/20 03:34:58;;;;;;;3.30;1.85;;;;;;;20.00;47.52;96565.25;5112815;28;20054;-77
2023/07/20 03:37:25;;;;;;;2.05;1.73;;;;;;;19.99;47.72;96555.72;5112816;28;20047;-78
2023/07/20 03:39:53;;;;;;;4.68;2.00;;;;;;;20.01;47.55;96556.28;5112381;28;20112;-77
2023/07/20 03:42:20;;;;;;;2.45;1.65;;;;;;;20.06;47.46;96560.84;5112423;28;20159;-77
2023/07/20 03:44:48;;;;;;;1.73;1.30;;;;;;;20.13;46.93;96566.78;5112682;28;20052;-77
2023/07/20 03:47:16;;;;;;;1.95;1.40;;;;;;;20.14;47.30;96563.09;5112451;28;20044;-77
2023/07/20 03:49:45;;;;;;;1.60;1.50;;;;;;;20.13;47.00;96570.22;5112449;28;20472;-77
2023/07/20 03:52:12;;;;;;;5.55;2.55;;;;;;;20.10;47.45;96573.38;5112125;28;20047;-77
2023/07/20 03:54:40;;;;;;;5.80;1.85;;;;;;;20.03;47.26;96570.09;5112199;28;20499;-76
2023/07/20 03:57:08;;;;;;;4.57;1.85;;;;;;;19.96;47.58;96564.97;5112611;28;20425;-77
2023/07/20 03:59:37;;;;;;;2.33;1.48;;;;;;;19.94;48.25;96571.53;5112617;28;20062;-77
2023/07/20 04:02:06;;;;;;;3.05;1.58;;;;;;;19.92;47.53;96571.00;5112547;28;20109;-77
2023/07/20 04:04:33;;;;;;;4.90;1.85;;;;;;;19.88;47.77;96578.59;5112640;28;20051;-77
2023/07/20 04:07:02;;;;;;;4.05;1.70;;;;;;;19.82;48.10;96576.13;5112674;28;20077;-77
2023/07/20 04:09:30;;;;;;;4.85;1.70;;;;;;;19.74;49.70;96580.78;5112270;28;20047;-76
2023/07/20 04:11:57;;;;;;;3.17;1.85;;;;;;;19.70;48.30;96581.47;5125463;28;20498;-77
2023/07/20 04:14:25;;;;;;;4.15;1.98;;;;;;;19.62;48.57;96582.66;5115885;28;20073;-78
2023/07/20 04:16:53;;;;;;;4.45;1.75;;;;;;;19.56;48.71;96575.66;5120373;28;20047;-78
2023/07/20 04:44:52;;;;;;;2.17;1.52;;;;;;;19.70;49.43;96592.06;5209600;22;20423;-78
2023/07/20 04:47:28;;;;;;;2.75;1.75;;;;;;;19.68;48.94;96592.28;5081712;28;20052;-79
2023/07/20 04:50:24;;;;;;;3.25;1.70;;;;;;;19.67;49.93;96606.53;5073280;28;20048;-79
2023/07/20 05:16:48;;;;;;;5.40;3.95;;;;;;;19.70;48.67;96595.53;5349291;22;20102;-77
2023/07/20 05:19:15;;;;;;;10.15;8.38;;;;;;;19.72;48.88;96587.31;5076835;28;20135;-77
2023/07/20 05:21:43;;;;;;;5.30;3.25;;;;;;;19.73;48.96;96589.75;5075825;28;20063;-77
2023/07/20 05:24:11;;;;;;;3.72;2.40;;;;;;;19.76;48.76;96589.25;5077149;28;20044;-77
2023/07/20 05:26:38;;;;;;;3.95;1.67;;;;;;;19.74;49.29;96591.34;5075618;28;20056;-77
2023/07/20 05:29:06;;;;;;;4.40;2.13;;;;;;;19.75;49.07;96590.31;5129047;22;20036;-82
2023/07/20 05:31:34;;;;;;;2.08;1.88;;;;;;;19.74;48.94;96598.47;5093235;28;20041;-88
2023/07/20 05:34:03;;;;;;;5.28;1.63;;;;;;;19.73;49.35;96600.31;5086410;28;20059;-87
2023/07/20 05:36:31;;;;;;;3.88;1.67;;;;;;;19.75;49.44;96592.16;5085427;28;20071;-86
2023/07/20 05:38:59;;;;;;;2.40;1.50;;;;;;;19.74;48.66;96593.19;5084851;28;20551;-87
2023/07/20 05:41:26;;;;;;;4.55;2.25;;;;;;;19.72;48.55;96590.78;5086086;28;20067;-87
2023/07/20 05:43:54;;;;;;;6.53;5.00;;;;;;;19.73;48.48;96595.03;5091099;28;20070;-87
2023/07/20 05:46:24;;;;;;;6.85;4.45;;;;;;;19.73;48.52;96596.88;5092258;28;20045;-86
2023/07/20 05:48:54;;;;;;;22.67;16.58;;;;;;;19.74;48.63;96591.34;5091323;28;20044;-89
2023/07/20 05:51:24;;;;;;;10.98;8.02;;;;;;;19.75;49.06;96592.94;5088499;28;20052;-87
2023/07/20 05:53:52;;;;;;;6.18;2.85;;;;;;;19.75;49.20;96592.94;5087192;28;20052;-84
2023/07/20 05:56:19;;;;;;;5.32;2.40;;;;;;;19.78;49.17;96591.66;5084700;28;20060;-85
2023/07/20 05:58:48;;;;;;;3.55;1.83;;;;;;;19.79;48.93;96600.41;5085384;28;20135;-86
2023/07/20 06:01:15;;;;;;;6.13;2.63;;;;;;;19.72;48.72;96598.75;5083078;28;20086;-86
2023/07/20 06:03:43;;;;;;;6.00;2.08;;;;;;;19.65;49.37;96600.69;5084769;28;20068;-86
2023/07/20 06:06:12;;;;;;;4.55;1.75;;;;;;;19.66;49.80;96606.81;5083716;28;20044;-86
2023/07/20 06:08:41;;;;;;;3.42;1.80;;;;;;;19.67;49.48;96609.19;5083610;28;20063;-84
2023/07/20 06:11:09;;;;;;;2.08;1.60;;;;;;;19.67;49.52;96600.44;5083396;28;20060;-86
2023/07/20 06:13:37;;;;;;;6.28;1.67;;;;;;;19.68;49.82;96602.06;5084835;28;20245;-87
2023/07/20 06:16:05;;;;;;;5.93;1.80;;;;;;;19.70;49.52;96607.94;5083747;28;20044;-86
2023/07/20 06:18:33;;;;;;;3.53;1.77;;;;;;;19.73;49.36;96602.97;5082705;28;20045;-86
2023/07/20 06:21:01;;;;;;;2.60;1.90;;;;;;;19.74;49.58;96601.13;5082517;28;20060;-85
2023/07/20 06:23:29;;;;;;;5.35;2.15;;;;;;;19.71;49.54;96607.69;5081822;28;20052;-84
2023/07/20 06:25:58;;;;;;;3.88;1.65;;;;;;;19.68;49.99;96594.94;5083032;28;20504;-85
2023/07/20 06:28:26;;;;;;;2.38;1.63;;;;;;;19.70;49.81;96595.53;5082239;28;20048;-84
2023/07/20 06:31:00;;;;;;;3.13;1.70;;;;;;;19.78;49.78;96601.47;5081388;28;20093;-81
2023/07/20 06:33:28;;;;;;;5.95;1.83;;;;;;;19.86;49.58;96601.06;5082583;28;20052;-86
2023/07/20 06:35:56;;;;;;;2.58;1.45;;;;;;;19.93;49.39;96599.06;5082415;28;20499;-84
2023/07/20 06:38:24;;;;;;;4.05;1.80;;;;;;;19.98;48.89;96604.41;5082224;28;20079;-83
2023/07/20 06:40:55;;;;;;;3.42;1.27;;;;;;;20.01;48.75;96600.50;5082339;28;20110;-82
2023/07/20 06:43:24;;;;;;;6.47;4.05;;;;;;;19.99;48.34;96608.69;5082705;28;20056;-82
2023/07/20 06:45:55;;;;;;;4.75;2.92;;;;;;;20.01;48.56;96606.59;5082708;28;20127;-85
2023/07/20 06:48:23;;;;;;;9.77;6.45;;;;;;;20.05;48.86;96601.59;5082768;28;20044;-84
2023/07/20 06:50:51;;;;;;;4.22;2.40;;;;;;;20.11;48.72;96606.72;5082994;28;20075;-85
2023/07/20 06:53:18;;;;;;;2.25;1.30;;;;;;;20.13;48.36;96599.34;5082168;28;20106;-82
2023/07/20 06:55:46;;;;;;;3.78;1.48;;;;;;;20.14;48.59;96594.88;5081158;28;20052;-83
2023/07/20 06:58:14;;;;;;;6.10;1.40;;;;;;;20.18;48.66;96598.63;5080522;28;20044;-88
2023/07/20 07:00:47;;;;;;;8.20;1.88;;;;;;;20.29;48.32;96603.03;5081757;28;20058;-86
2023/07/20 07:03:14;;;;;;;;;;;;;;;20.40;48.29;96604.00;5082231;28;20131;-83
2023/07/20 07:05:42;;;;;;;4.05;1.75;;;;;;;20.48;48.01;96603.53;5079056;28;19920;-87
2023/07/20 07:08:10;;;;;;;6.40;1.90;;;;;;;20.56;48.51;96603.13;5079021;28;20052;-83
2023/07/20 07:10:38;;;;;;;2.40;1.45;;;;;;;20.65;47.95;96600.88;5078192;28;20045;-85
2023/07/20 07:13:06;;;;;;;4.00;1.40;;;;;;;20.74;47.55;96606.56;5079403;28;20091;-86
2023/07/20 07:15:34;;;;;;;4.18;1.60;;;;;;;20.77;46.71;96603.41;5079122;28;20044;-88
2023/07/20 07:18:05;;;;;;;3.13;1.38;;;;;;;20.75;47.14;96600.19;5078334;28;20052;-88
2023/07/20 07:20:32;;;;;;;11.98;1.83;;;;;;;20.77;47.37;96604.22;5078295;28;20052;-85
2023/07/20 07:23:00;;;;;;;4.40;1.58;;;;;;;20.82;46.70;96605.34;5078244;28;20045;-84
2023/07/20 07:25:28;;;;;;;4.38;1.70;;;;;;;20.83;46.65;96602.44;5078415;28;20052;-86
2023/07/20 07:27:57;;;;;;;2.58;1.60;;;;;;;20.87;46.75;96606.19;5077271;28;20466;-88
2023/07/20 07:30:24;;;;;;;3.90;1.20;;;;;;;20.87;46.50;96608.84;5077708;28;20420;-82
2023/07/20 07:32:52;;;;;;;6.95;1.50;;;;;;;20.81;46.49;96603.72;5076386;28;20550;-85
2023/07/20 07:35:22;;;;;;;5.47;1.25;;;;;;;20.82;46.55;96605.34;5078370;28;20056;-82
2023/07/20 07:37:50;;;;;;;3.97;1.50;;;;;;;20.89;48.41;96605.94;5079492;28;20064;-82
2023/07/20 07:40:38;;;;;;;2.28;1.70;;;;;;;20.96;47.76;96601.25;5078098;28;20136;-86
2023/07/20 07:43:06;;;;;;;2.22;1.55;;;;;;;21.06;46.96;96601.38;5078746;28;20057;-85
2023/07/20 07:45:36;;;;;;;2.55;1.30;;;;;;;21.18;50.60;96609.19;5076979;28;20045;-83
2023/07/20 07:48:05;;;;;;;3.72;1.98;;;;;;;21.24;49.02;96608.19;5077341;28;20049;-82
2023/07/20 07:50:35;;;;;;;12.95;7.55;;;;;;;21.26;47.63;96595.50;5080403;28;20064;-85
2023/07/20 07:53:03;;;;;;;5.95;2.95;;;;;;;21.30;46.77;96596.59;5081219;28;20049;-82
2023/07/20 07:55:30;;;;;;;4.05;2.13;;;;;;;21.32;46.48;96599.00;5081649;28;20056;-82
2023/07/20 07:57:58;;;;;;;192.77;37.55;;;;;;;21.36;50.74;96598.25;5081702;28;20052;-81
2023/07/20 08:00:27;;;;;;;8.90;2.72;;;;;;;21.37;46.98;96602.50;5081329;28;20048;-84
2023/07/20 08:02:55;;;;;;;4.32;1.95;;;;;;;21.37;46.82;96597.19;5081214;28;20083;-89
2023/07/20 08:05:23;;;;;;;2.50;1.58;;;;;;;21.43;46.39;96594.59;5080564;28;20053;-85
2023/07/20 08:07:53;;;;;;;17.92;4.65;;;;;;;21.42;46.83;96596.47;5079902;28;20045;-82
2023/07/20 08:10:21;;;;;;;9.20;2.80;;;;;;;21.38;47.36;96598.81;5079663;28;20594;-81
2023/07/20 08:12:49;;;;;;;3.42;2.65;;;;;;;21.51;54.63;96599.47;5080381;28;20139;-87
2023/07/20 08:15:17;;;;;;;6.63;5.13;;;;;;;21.64;49.50;96601.72;5081267;28;20049;-81
2023/07/20 08:17:45;;;;;;;9.40;6.53;;;;;;;21.77;51.15;96595.97;5080909;28;20052;-83
2023/07/20 08:20:14;;;;;;;9.15;7.07;;;;;;;21.91;48.93;96595.53;5080086;28;20568;-81
2023/07/20 08:22:42;;;;;;;4.13;3.33;;;;;;;22.03;51.16;96588.22;5080584;28;20044;-86
2023/07/20 08:25:11;;;;;;;2.65;1.70;;;;;;;22.13;48.53;96587.50;5079631;28;20511;-88
2023/07/20 08:27:40;;;;;;;6.25;2.70;;;;;;;22.23;48.92;96592.88;5079173;28;20049;-84
2023/07/20 08:30:09;;;;;;;3.83;2.67;;;;;;;22.26;49.16;96599.53;5079539;28;20044;-83
2023/07/20 08:32:37;;;;;;;2.53;1.83;;;;;;;22.31;46.80;96591.63;5079901;28;20052;-82
2023/07/20 08:35:05;;;;;;;1.63;1.35;;;;;;;22.23;44.65;96586.78;5079368;28;20131;-87
2023/07/20 08:37:33;;;;;;;5.28;2.63;;;;;;;22.17;46.87;96589.38;5079815;28;20106;-87
2023/07/20 08:40:03;;;;;;;1.35;1.25;;;;;;;22.07;44.90;96602.59;5079642;28;20063;-84
2023/07/20 08:42:33;;;;;;;3.60;1.90;;;;;;;22.07;44.38;96593.81;5080553;28;20052;-81
2023/07/20 08:45:02;;;;;;;3.22;1.90;;;;;;;22.11;46.50;96590.41;5079741;28;20049;-83
2023/07/20 08:47:30;;;;;;;2.75;1.67;;;;;;;22.16;44.48;96590.41;5079316;28;20048;-83
2023/07/20 08:49:59;;;;;;;3.08;1.73;;;;;;;22.23;43.98;96586.78;5079622;28;20080;-85
2023/07/20 08:52:28;;;;;;;4.80;1.60;;;;;;;22.33;43.98;96587.63;5080448;28;20101;-84
2023/07/20 08:54:56;;;;;;;3.72;1.30;;;;;;;22.39;43.59;96586.63;5080450;28;20049;-85
2023/07/20 08:57:24;;;;;;;6.18;2.25;;;;;;;22.48;44.03;96586.09;5080510;28;20048;-86
2023/07/20 08:59:54;;;;;;;4.28;2.10;;;;;;;22.55;45.84;96587.50;5079526;28;20050;-84
2023/07/20 09:02:27;;;;;;;3.35;1.83;;;;;;;22.57;43.16;96582.72;5078617;28;20079;-82
2023/07/20 09:04:55;;;;;;;3.80;2.50;;;;;;;22.63;48.21;96579.03;5079001;28;20055;-84
2023/07/20 09:07:24;;;;;;;3.78;2.30;;;;;;;22.77;48.60;96583.88;5078835;28;20053;-83
2023/07/20 09:09:52;;;;;;;4.78;2.88;;;;;;;22.85;50.39;96586.03;5083362;28;20052;-87
2023/07/20 09:12:20;;;;;;;3.72;2.50;;;;;;;22.84;47.27;96589.75;5090311;28;20063;-84
2023/07/20 09:14:49;;;;;;;5.78;2.70;;;;;;;22.85;48.43;96583.38;5090984;28;20045;-86
2023/07/20 09:17:19;;;;;;;2.80;2.20;;;;;;;22.87;45.41;96585.75;5087181;28;20055;-85
2023/07/20 09:19:48;;;;;;;5.82;2.97;;;;;;;22.84;42.54;96579.09;5085640;28;20483;-88
2023/07/20 09:22:17;;;;;;;4.60;3.20;;;;;;;22.84;47.35;96581.75;5086237;28;20123;-86
2023/07/20 09:24:45;;;;;;;11.07;5.30;;;;;;;22.90;47.51;96574.63;5085740;28;20075;-86
2023/07/20 09:27:13;;;;;;;39.08;27.75;;;;;;;22.96;49.65;96585.00;5086782;28;20431;-88
2023/07/20 09:29:49;;;;;;;6.35;3.88;;;;;;;23.06;42.61;96581.59;5086950;28;20076;-87
2023/07/20 09:32:21;;;;;;;3.03;2.00;;;;;;;23.15;41.82;96580.00;5086435;28;20109;-88
2023/07/20 09:34:52;;;;;;;2.92;1.85;;;;;;;23.29;42.19;96582.19;5084397;28;20500;-89
2023/07/20 09:37:22;;;;;;;3.47;2.65;;;;;;;23.41;43.96;96582.72;5085947;28;20112;-84
2023/07/20 09:39:53;;;;;;;3.30;2.65;;;;;;;23.55;45.30;96580.34;5085411;28;20080;-86
2023/07/20 09:42:25;;;;;;;87.38;62.63;;;;;;;23.67;45.00;96578.22;5085981;28;20123;-85
2023/07/20 09:44:56;;;;;;;13.05;8.57;;;;;;;23.75;41.05;96574.25;5085582;28;20067;-84
2023/07/20 09:47:26;;;;;;;11.98;9.00;;;;;;;23.70;39.47;96577.69;5085771;28;20072;-87
2023/07/20 09:50:00;;;;;;;3.78;3.10;;;;;;;23.62;39.02;96571.03;5086605;28;20495;-87
2023/07/20 09:52:31;;;;;;;4.18;2.95;;;;;;;23.62;40.59;96565.72;5085775;28;20048;-86
2023/07/20 09:55:04;;;;;;;4.72;3.13;;;;;;;23.67;41.73;96564.91;5087163;28;20045;-87
2023/07/20 09:57:34;;;;;;;3.65;1.77;;;;;;;23.76;38.93;96571.34;5085244;28;20496;-87
2023/07/20 10:00:07;;;;;;;3.70;2.60;;;;;;;23.83;42.23;96571.88;5086290;28;20048;-86
2023/07/20 10:02:43;;;;;;;2.80;1.77;;;;;;;23.87;38.26;96566.00;5089305;28;20052;-88
2023/07/20 10:05:13;;;;;;;3.13;1.95;;;;;;;23.88;39.26;96565.75;5088592;28;20053;-88
2023/07/20 10:07:47;;;;;;;5.45;3.25;;;;;;;23.93;44.04;96567.59;5082396;28;20048;-87
2023/07/20 10:10:16;;;;;;;3.83;2.20;;;;;;;24.00;41.28;96566.25;5083142;28;20074;-87
2023/07/20 10:12:47;;;;;;;4.63;3.13;;;;;;;24.11;44.53;96569.72;5087193;28;20104;-86
2023/07/20 10:15:21;;;;;;;2.95;1.88;;;;;;;24.15;39.37;96562.78;5087992;28;20067;-90
2023/07/20 10:18:00;;;;;;;2.00;1.90;;;;;;;24.16;39.43;96564.38;5087177;28;20068;-86
2023/07/20 10:20:28;;;;;;;2.30;1.70;;;;;;;24.11;39.07;96556.38;5086835;28;20053;-89
2023/07/20 10:22:59;;;;;;;3.38;1.60;;;;;;;24.10;38.48;96549.47;5087165;28;20104;-86
2023/07/20 10:25:28;;;;;;;2.15;1.95;;;;;;;24.12;38.52;96547.34;5083187;28;20170;-85
2023/07/20 10:27:57;;;;;;;11.18;5.20;;;;;;;24.10;39.60;96546.81;5082987;28;20101;-85
2023/07/20 10:30:26;;;;;;;9.10;5.10;;;;;;;24.06;39.59;96543.88;5081465;28;20044;-86
2023/07/20 10:32:56;;;;;;;7.50;4.32;;;;;;;24.04;39.79;96555.88;5082188;28;20125;-84
2023/07/20 10:35:24;;;;;;;4.63;1.85;;;;;;;24.01;39.34;96543.09;5080222;28;20054;-84
2023/07/20 10:37:55;;;;;;;1.70;1.50;;;;;;;24.05;38.92;96546.78;5078237;28;20097;-83
2023/07/20 10:40:33;;;;;;;2.65;1.90;;;;;;;24.15;39.83;96552.13;5080904;28;20504;-85
2023/07/20 10:43:04;;;;;;;7.45;4.78;;;;;;;24.21;39.38;96548.38;5082144;28;20052;-85
2023/07/20 10:45:41;;;;;;;5.28;2.42;;;;;;;24.25;38.77;96544.09;5081276;28;20052;-84
2023/07/20 10:48:19;;;;;;;16.42;10.13;;;;;;;24.33;44.67;96540.06;5082049;28;20108;-86
2023/07/20 10:51:14;;;;;;;2.95;2.20;;;;;;;24.44;39.08;96538.16;5081546;28;20411;-83
2023/07/20 10:53:42;;;;;;;4.65;4.13;;;;;;;24.46;39.72;96536.03;5081657;28;20055;-83
2023/07/20 10:56:13;;;;;;;5.18;3.35;;;;;;;24.50;42.23;96531.78;5081771;28;20106;-84
2023/07/20 10:58:41;;;;;;;1.70;1.40;;;;;;;24.52;38.57;96526.19;5080968;28;20044;-87
2023/07/20 11:01:14;;;;;;;4.47;1.77;;;;;;;24.51;37.30;96522.72;5081262;28;20045;-84
2023/07/20 11:03:51;;;;;;;9.57;4.72;;;;;;;24.58;38.53;96525.09;5081174;28;20516;-81
2023/07/20 11:06:38;;;;;;;6.80;3.60;;;;;;;24.67;36.48;96518.13;5081599;28;20123;-84
2023/07/20 11:09:10;;;;;;;4.47;2.13;;;;;;;24.67;36.92;96518.91;5081086;28;20050;-86
2023/07/20 11:11:39;;;;;;;3.53;2.40;;;;;;;24.66;37.44;96516.50;5080543;28;20098;-84
2023/07/20 11:14:08;;;;;;;1.95;1.42;;;;;;;24.70;36.41;96514.91;5080783;28;20045;-85
2023/07/20 11:16:41;;;;;;;3.55;1.58;;;;;;;24.78;36.09;96510.88;5080896;28;20044;-84
2023/07/20 11:19:18;;;;;;;4.93;2.05;;;;;;;24.89;36.76;96512.41;5080721;28;20405;-83
2023/07/20 11:21:51;;;;;;;4.75;2.67;;;;;;;25.00;36.23;96508.59;5080749;28;20082;-87
2023/07/20 11:24:31;;;;;;;10.25;4.28;;;;;;;25.07;36.49;96514.41;5079974;28;20048;-84
2023/07/20 11:27:01;;;;;;;2.65;1.60;;;;;;;25.12;36.59;96504.78;5081200;28;20079;-88
2023/07/20 11:29:28;;;;;;;2.38;1.13;;;;;;;25.16;36.09;96495.16;5097692;22;20526;-76
2023/07/20 11:32:01;;;;;;;;;;;;;;;25.18;36.39;96503.69;5076056;28;20054;-78
2023/07/20 11:34:32;;;;;;;2.70;1.30;;;;;;;25.12;35.90;96494.91;5073051;28;20354;-77
2023/07/20 11:37:00;;;;;;;1.45;1.23;;;;;;;25.03;36.46;96492.03;5074329;28;20051;-77
2023/07/20 11:39:30;;;;;;;2.83;1.92;;;;;;;25.08;39.16;96492.00;5075190;28;20492;-77
2023/07/20 11:41:59;;;;;;;2.33;1.83;;;;;;;25.19;37.27;96499.94;5074439;28;20048;-77
2023/07/20 11:44:27;;;;;;;8.50;5.22;;;;;;;25.29;36.80;96494.56;5072805;28;20048;-77
2023/07/20 11:47:03;;;;;;;10.63;7.25;;;;;;;25.38;36.10;96497.41;5073035;28;20049;-77
2023/07/20 11:49:36;;;;;;;13.35;4.38;;;;;;;25.45;40.16;96493.38;5072246;28;20041;-77
2023/07/20 11:52:05;;;;;;;3.13;1.80;;;;;;;25.48;35.50;96490.13;5071920;28;20049;-78
2023/07/20 11:54:33;;;;;;;3.30;1.88;;;;;;;25.55;35.86;96481.78;5072162;28;20053;-78
2023/07/20 11:57:02;;;;;;;1.30;1.20;;;;;;;25.60;34.84;96483.63;5072180;28;20139;-78
2023/07/20 11:59:31;;;;;;;3.53;1.77;;;;;;;25.53;33.48;96488.50;5071726;28;20045;-78
2023/07/20 12:02:02;;;;;;;2.85;1.70;;;;;;;25.38;34.26;96492.09;5071851;28;20050;-78
2023/07/20 12:04:30;;;;;;;2.13;1.40;;;;;;;25.26;33.72;96481.78;5072028;28;20048;-77
2023/07/20 12:06:59;;;;;;;1.55;1.17;;;;;;;25.27;34.18;96472.69;5071720;28;20052;-78
2023/07/20 12:09:27;;;;;;;3.42;2.08;;;;;;;25.37;34.12;96480.63;5071953;28;20473;-78
2023/07/20 12:12:13;;;;;;;2.65;2.45;;;;;;;25.43;37.13;96474.16;5071833;28;20192;-78
2023/07/20 12:14:40;;;;;;;2.65;1.38;;;;;;;25.41;34.74;96476.31;5071935;28;20060;-79
2023/07/20 12:17:09;;;;;;;2.47;2.25;;;;;;;25.40;38.96;96474.69;5071926;28;20127;-77
2023/07/20 12:19:39;;;;;;;1.80;1.30;;;;;;;25.37;34.22;96469.94;5071641;28;20090;-77
2023/07/20 12:22:08;;;;;;;2.15;1.95;;;;;;;25.28;36.71;96472.41;5072322;28;20507;-78
2023/07/20 12:24:36;;;;;;;2.25;1.65;;;;;;;25.25;35.53;96472.97;5072060;28;20072;-77
2023/07/20 12:27:05;;;;;;;2.95;2.42;;;;;;;25.26;39.09;96468.44;5072390;28;20045;-78
2023/07/20 12:29:35;;;;;;;3.45;1.33;;;;;;;25.31;36.22;96468.38;5071673;28;20040;-78
2023/07/20 12:32:04;;;;;;;4.78;2.00;;;;;;;25.36;35.50;96457.66;5072426;28;20045;-78
2023/07/20 12:34:32;;;;;;;3.75;1.60;;;;;;;25.35;34.23;96455.28;5071762;28;20143;-78